createdAt,value
2022-09-15T00:00:28.660Z,14.96
2022-09-15T00:02:55.375Z,15.02
2022-09-15T00:05:23.393Z,15.01
2022-09-15T00:07:50.075Z,15.09
2022-09-15T00:10:16.891Z,15.16
2022-09-15T00:12:43.569Z,15.22
2022-09-15T00:15:12.206Z,15.12
2022-09-15T00:17:38.877Z,15.08
2022-09-15T00:20:06.235Z,15.11
2022-09-15T00:22:34.229Z,15.19
2022-09-15T00:25:00.842Z,15.16
2022-09-15T00:27:27.404Z,15.07
2022-09-15T00:29:53.938Z,15.00
2022-09-15T00:32:20.622Z,14.96
2022-09-15T00:34:49.749Z,14.94
2022-09-15T00:37:16.673Z,14.92
2022-09-15T00:39:44.751Z,14.82
2022-09-15T00:42:14.791Z,14.81
2022-09-15T00:44:53.315Z,14.87
2022-09-15T00:47:22.617Z,14.75
2022-09-15T00:49:58.798Z,14.68
2022-09-15T00:52:32.146Z,14.85
2022-09-15T00:55:05.461Z,14.80
2022-09-15T00:57:35.087Z,14.65
2022-09-15T01:00:05.906Z,14.58
2022-09-15T01:02:34.917Z,14.56
2022-09-15T01:05:03.453Z,14.45
2022-09-15T01:07:33.721Z,14.48
2022-09-15T01:10:05.793Z,14.45
2022-09-15T01:12:33.031Z,14.37
2022-09-15T01:15:00.675Z,14.34
2022-09-15T01:17:36.731Z,14.36
2022-09-15T01:20:33.986Z,14.52
2022-09-15T01:23:18.494Z,14.59
2022-09-15T01:26:04.456Z,14.55
2022-09-15T01:28:50.803Z,14.66
2022-09-15T01:31:23.554Z,14.69
2022-09-15T01:33:59.881Z,14.67
2022-09-15T01:36:36.081Z,14.66
2022-09-15T01:39:07.965Z,14.57
2022-09-15T01:41:40.666Z,14.63
2022-09-15T01:44:10.543Z,14.60
2022-09-15T01:46:42.470Z,14.57
2022-09-15T01:49:11.847Z,14.59
2022-09-15T01:51:40.736Z,14.55
2022-09-15T01:54:08.734Z,14.58
2022-09-15T01:56:37.418Z,14.56
2022-09-15T01:59:04.462Z,14.54
2022-09-15T02:01:36.577Z,14.73
2022-09-15T02:04:09.219Z,14.88
2022-09-15T02:06:45.061Z,14.92
2022-09-15T02:09:15.184Z,14.97
2022-09-15T02:11:50.947Z,15.01
2022-09-15T02:14:22.901Z,15.02
2022-09-15T02:16:52.375Z,15.18
2022-09-15T02:19:26.542Z,15.15
2022-09-15T02:21:57.383Z,15.29
2022-09-15T02:24:33.881Z,15.26
2022-09-15T02:27:02.415Z,15.17
2022-09-15T02:29:32.365Z,15.23
2022-09-15T02:32:06.878Z,15.19
2022-09-15T02:34:40.448Z,15.31
2022-09-15T02:37:09.882Z,15.30
2022-09-15T02:39:40.709Z,15.30
2022-09-15T02:42:07.654Z,15.30
2022-09-15T02:44:34.381Z,15.30
2022-09-15T02:47:02.118Z,15.33
2022-09-15T02:49:28.685Z,15.37
2022-09-15T02:51:56.675Z,15.40
2022-09-15T02:54:23.387Z,15.35
2022-09-15T02:56:50.093Z,15.43
2022-09-15T02:59:16.715Z,15.50
2022-09-15T03:01:45.386Z,15.51
2022-09-15T03:04:11.992Z,15.53
2022-09-15T03:06:40.026Z,15.45
2022-09-15T03:09:08.540Z,15.46
2022-09-15T03:11:37.946Z,15.45
2022-09-15T03:14:06.179Z,15.47
2022-09-15T03:16:34.981Z,15.51
2022-09-15T03:19:02.417Z,15.43
2022-09-15T03:21:30.435Z,15.43
2022-09-15T03:23:59.944Z,15.48
2022-09-15T03:26:28.974Z,15.50
2022-09-15T03:28:55.708Z,15.57
2022-09-15T03:31:24.189Z,15.56
2022-09-15T03:33:51.173Z,15.49
2022-09-15T03:36:17.772Z,15.53
2022-09-15T03:38:44.475Z,15.52
2022-09-15T03:41:12.414Z,15.41
2022-09-15T03:43:40.997Z,15.34
2022-09-15T03:46:10.041Z,15.38
2022-09-15T03:48:37.027Z,15.43
2022-09-15T03:51:04.551Z,15.41
2022-09-15T03:53:31.890Z,15.40
2022-09-15T03:56:08.549Z,15.39
2022-09-15T03:58:35.323Z,15.27
2022-09-15T04:01:03.724Z,15.26
2022-09-15T04:03:31.356Z,15.33
2022-09-15T04:05:57.960Z,15.29
2022-09-15T04:08:24.581Z,15.29
2022-09-15T04:10:51.106Z,15.27
2022-09-15T04:13:17.718Z,15.17
2022-09-15T04:15:44.498Z,15.17
2022-09-15T04:18:12.399Z,15.17
2022-09-15T04:20:39.478Z,15.23
2022-09-15T04:23:06.434Z,15.23
2022-09-15T04:25:33.066Z,15.20
2022-09-15T04:27:59.651Z,15.22
2022-09-15T04:30:26.262Z,15.18
2022-09-15T04:32:52.804Z,15.09
2022-09-15T04:35:20.717Z,15.08
2022-09-15T04:37:47.358Z,15.07
2022-09-15T04:40:14.163Z,15.07
2022-09-15T04:42:40.839Z,15.13
2022-09-15T04:45:08.309Z,15.22
2022-09-15T04:47:34.806Z,15.27
2022-09-15T04:50:01.546Z,15.16
2022-09-15T04:52:29.458Z,15.15
2022-09-15T04:54:56.177Z,15.16
2022-09-15T04:57:22.820Z,15.14
2022-09-15T04:59:57.240Z,15.12
2022-09-15T05:02:23.990Z,15.09
2022-09-15T05:04:50.729Z,15.16
2022-09-15T05:07:17.572Z,15.20
2022-09-15T05:09:45.545Z,15.18
2022-09-15T05:12:12.182Z,15.23
2022-09-15T05:14:38.723Z,15.21
2022-09-15T05:17:05.354Z,15.25
2022-09-15T05:19:31.937Z,15.24
2022-09-15T05:21:58.542Z,15.22
2022-09-15T05:24:25.107Z,15.29
2022-09-15T05:26:53.094Z,15.29
2022-09-15T05:29:19.691Z,15.22
2022-09-15T05:31:46.466Z,15.28
2022-09-15T05:34:13.168Z,15.34
2022-09-15T05:36:39.727Z,15.31
2022-09-15T05:39:06.477Z,15.42
2022-09-15T05:41:33.095Z,15.35
2022-09-15T05:44:01.189Z,15.36
2022-09-15T05:46:28.328Z,15.42
2022-09-15T05:48:56.539Z,15.35
2022-09-15T05:51:23.916Z,15.35
2022-09-15T05:53:50.641Z,15.33
2022-09-15T05:56:17.945Z,15.24
2022-09-15T05:58:46.494Z,15.32
2022-09-15T06:01:16.617Z,15.37
2022-09-15T06:03:43.762Z,15.44
2022-09-15T06:06:10.979Z,15.49
2022-09-15T06:08:44.023Z,15.51
2022-09-15T06:11:12.671Z,15.53
2022-09-15T06:13:39.621Z,15.47
2022-09-15T06:16:08.307Z,15.58
2022-09-15T06:18:39.268Z,15.61
2022-09-15T06:21:08.544Z,15.67
2022-09-15T06:23:35.515Z,15.69
2022-09-15T06:26:07.272Z,15.84
2022-09-15T06:28:34.073Z,15.87
2022-09-15T06:31:00.856Z,15.90
2022-09-15T06:33:27.725Z,15.95
2022-09-15T06:35:55.820Z,16.04
2022-09-15T06:38:22.615Z,16.18
2022-09-15T06:40:56.313Z,16.10
2022-09-15T06:43:23.181Z,16.01
2022-09-15T06:45:49.951Z,16.01
2022-09-15T06:48:24.503Z,16.02
2022-09-15T06:50:56.061Z,16.11
2022-09-15T06:53:22.728Z,16.09
2022-09-15T06:55:49.456Z,16.15
2022-09-15T06:58:16.488Z,16.19
2022-09-15T07:00:43.212Z,16.27
2022-09-15T07:03:09.978Z,16.29
2022-09-15T07:05:36.663Z,16.38
2022-09-15T07:08:07.626Z,16.53
2022-09-15T07:10:34.374Z,16.62
2022-09-15T07:13:01.082Z,16.79
2022-09-15T07:15:27.679Z,16.94
2022-09-15T07:17:54.324Z,17.08
2022-09-15T07:20:21.612Z,17.11
2022-09-15T07:22:48.252Z,17.17
2022-09-15T07:25:16.361Z,17.34
2022-09-15T07:27:42.953Z,17.44
2022-09-15T07:30:10.690Z,17.55
2022-09-15T07:32:37.352Z,17.53
2022-09-15T07:35:04.430Z,17.48
2022-09-15T07:37:31.019Z,17.46
2022-09-15T07:39:57.799Z,17.44
2022-09-15T07:42:25.786Z,17.45
2022-09-15T07:44:52.534Z,17.44
2022-09-15T07:47:19.119Z,17.33
2022-09-15T07:49:45.747Z,17.21
2022-09-15T07:52:12.326Z,17.29
2022-09-15T07:54:38.921Z,17.38
2022-09-15T07:57:05.561Z,17.52
2022-09-15T07:59:34.407Z,17.87
2022-09-15T08:02:03.105Z,18.17
2022-09-15T08:04:29.701Z,18.29
2022-09-15T08:06:56.419Z,18.30
2022-09-15T08:09:23.258Z,18.49
2022-09-15T08:11:49.994Z,18.65
2022-09-15T08:14:16.608Z,18.66
2022-09-15T08:16:44.658Z,18.69
2022-09-15T08:19:11.958Z,18.78
2022-09-15T08:21:38.603Z,18.91
2022-09-15T08:24:05.406Z,18.98
2022-09-15T08:26:32.026Z,18.90
2022-09-15T08:28:58.584Z,18.91
2022-09-15T08:31:25.624Z,19.00
2022-09-15T08:33:55.173Z,19.04
2022-09-15T08:36:22.417Z,19.10
2022-09-15T08:38:48.994Z,19.24
2022-09-15T08:41:19.942Z,19.51
2022-09-15T08:43:49.923Z,19.63
2022-09-15T08:46:21.645Z,19.63
2022-09-15T08:49:03.406Z,19.53
2022-09-15T08:51:39.598Z,19.43
2022-09-15T08:54:14.421Z,19.34
2022-09-15T08:56:42.967Z,19.23
2022-09-15T08:59:13.417Z,19.19
2022-09-15T09:01:51.660Z,19.13
2022-09-15T09:04:31.532Z,19.03
2022-09-15T09:07:13.563Z,18.90
2022-09-15T09:09:45.579Z,18.90
2022-09-15T09:12:49.917Z,18.99
2022-09-15T09:15:26.755Z,19.10
2022-09-15T09:18:17.477Z,19.32
2022-09-15T09:20:52.484Z,19.63
2022-09-15T09:23:26.106Z,19.82
2022-09-15T09:25:52.945Z,19.71
2022-09-15T09:28:32.010Z,19.85
2022-09-15T09:31:02.384Z,19.80
2022-09-15T09:33:38.546Z,20.10
2022-09-15T09:36:05.613Z,20.21
2022-09-15T09:38:37.067Z,20.18
2022-09-15T09:41:08.447Z,20.15
2022-09-15T09:43:35.225Z,20.05
2022-09-15T09:46:01.987Z,19.84
2022-09-15T09:48:29.522Z,19.75
2022-09-15T09:50:56.529Z,19.66
2022-09-15T09:53:28.418Z,19.74
2022-09-15T09:56:16.838Z,19.74
2022-09-15T09:58:44.375Z,19.54
2022-09-15T10:01:13.893Z,19.56
2022-09-15T10:03:42.616Z,19.68
2022-09-15T10:06:13.348Z,19.91
2022-09-15T10:08:53.916Z,20.25
2022-09-15T10:11:22.247Z,20.40
2022-09-15T10:13:54.522Z,20.70
2022-09-15T10:16:22.171Z,20.73
2022-09-15T10:18:53.598Z,20.70
2022-09-15T10:21:23.891Z,20.68
2022-09-15T10:23:50.864Z,20.55
2022-09-15T10:26:31.109Z,20.63
2022-09-15T10:29:12.227Z,20.60
2022-09-15T10:31:39.957Z,20.41
2022-09-15T10:34:29.989Z,20.43
2022-09-15T10:37:13.955Z,20.21
2022-09-15T10:39:51.581Z,19.16
2022-09-15T10:42:31.671Z,18.78
2022-09-15T10:45:07.494Z,18.61
2022-09-15T10:47:45.053Z,18.45
2022-09-15T10:50:16.896Z,18.32
2022-09-15T10:53:03.092Z,18.32
2022-09-15T10:55:52.865Z,18.23
2022-09-15T10:58:53.214Z,18.31
2022-09-15T11:01:34.948Z,18.32
2022-09-15T11:04:22.845Z,18.33
2022-09-15T11:06:58.473Z,18.23
2022-09-15T11:09:31.833Z,18.25
2022-09-15T11:12:10.925Z,18.22
2022-09-15T11:15:00.754Z,18.22
2022-09-15T11:17:44.808Z,18.09
2022-09-15T11:20:32.244Z,17.91
2022-09-15T11:23:03.187Z,17.77
2022-09-15T11:25:34.170Z,17.71
2022-09-15T11:28:08.827Z,17.68
2022-09-15T11:30:45.652Z,17.63
2022-09-15T11:33:20.384Z,17.58
2022-09-15T11:35:52.346Z,17.51
2022-09-15T11:38:29.197Z,17.52
2022-09-15T11:41:10.102Z,17.47
2022-09-15T11:43:45.785Z,17.48
2022-09-15T11:46:23.226Z,17.53
2022-09-15T11:48:56.454Z,17.58
2022-09-15T11:51:26.654Z,17.65
2022-09-15T11:53:58.307Z,17.72
2022-09-15T11:56:29.402Z,17.70
2022-09-15T11:59:14.466Z,17.74
2022-09-15T12:01:55.452Z,17.66
2022-09-15T12:04:27.128Z,17.47
2022-09-15T12:09:31.856Z,17.19
2022-09-15T12:12:02.841Z,17.06
2022-09-15T12:14:34.368Z,17.00
2022-09-15T12:17:05.445Z,16.91
2022-09-15T12:19:48.475Z,16.84
2022-09-15T12:22:20.622Z,16.74
2022-09-15T12:24:51.112Z,16.82
2022-09-15T12:27:19.467Z,16.71
2022-09-15T12:29:49.882Z,16.70
2022-09-15T12:32:26.226Z,16.65
2022-09-15T12:35:29.846Z,16.76
2022-09-15T12:37:58.096Z,16.81
2022-09-15T12:40:31.903Z,16.94
2022-09-15T12:42:58.807Z,17.08
2022-09-15T12:45:27.460Z,17.20
2022-09-15T12:48:01.205Z,17.22
2022-09-15T12:50:31.384Z,17.32
2022-09-15T12:53:00.985Z,17.53
2022-09-15T12:55:32.647Z,17.95
2022-09-15T12:58:01.534Z,18.22
2022-09-15T13:00:34.534Z,18.51
2022-09-15T13:03:04.626Z,18.58
2022-09-15T13:06:12.775Z,18.70
2022-09-15T13:08:49.452Z,18.65
2022-09-15T13:11:21.221Z,18.82
2022-09-15T13:13:54.287Z,18.99
2022-09-15T13:16:29.155Z,19.02
2022-09-15T13:19:08.454Z,19.18
2022-09-15T13:21:37.908Z,19.28
2022-09-15T13:24:15.306Z,20.32
2022-09-15T13:26:44.119Z,20.60
2022-09-15T13:29:14.794Z,20.44
2022-09-15T13:31:50.332Z,20.48
2022-09-15T13:35:13.186Z,20.78
2022-09-15T13:38:07.860Z,20.58
2022-09-15T13:40:56.387Z,20.29
2022-09-15T13:43:42.837Z,20.80
2022-09-15T13:46:20.220Z,20.47
2022-09-15T13:48:57.312Z,20.24
2022-09-15T13:51:30.581Z,19.97
2022-09-15T13:54:02.107Z,19.76
2022-09-15T13:56:31.358Z,19.68
2022-09-15T13:59:06.737Z,19.54
2022-09-15T14:01:38.069Z,19.40
2022-09-15T14:04:09.519Z,19.33
2022-09-15T14:06:40.230Z,19.47
2022-09-15T14:09:15.239Z,19.41
2022-09-15T14:11:43.767Z,19.35
2022-09-15T14:14:25.149Z,19.36
2022-09-15T14:16:51.812Z,19.47
2022-09-15T14:19:28.904Z,19.57
2022-09-15T14:21:58.686Z,19.47
2022-09-15T14:24:27.961Z,19.47
2022-09-15T14:26:54.813Z,19.35
2022-09-15T14:29:23.234Z,19.29
2022-09-15T14:31:49.856Z,19.30
2022-09-15T14:34:20.172Z,19.23
2022-09-15T14:36:58.131Z,19.24
2022-09-15T14:39:26.206Z,19.19
2022-09-15T14:41:53.150Z,19.27
2022-09-15T14:47:13.865Z,19.42
2022-09-15T14:49:41.175Z,19.35
2022-09-15T14:52:26.048Z,19.42
2022-09-15T14:54:59.906Z,19.37
2022-09-15T14:57:31.350Z,19.35
2022-09-15T15:00:03.187Z,19.40
2022-09-15T15:02:40.909Z,19.33
2022-09-15T15:05:14.504Z,19.32
2022-09-15T15:07:42.799Z,19.16
2022-09-15T15:10:16.794Z,19.05
2022-09-15T15:12:47.882Z,18.95
2022-09-15T15:15:16.331Z,18.90
2022-09-15T15:17:45.075Z,18.90
2022-09-15T15:20:16.096Z,18.81
2022-09-15T15:22:44.256Z,18.71
2022-09-15T15:25:27.569Z,18.69
2022-09-15T15:27:56.773Z,18.52
2022-09-15T15:30:26.806Z,18.39
2022-09-15T15:32:53.925Z,18.27
2022-09-15T15:35:21.004Z,18.22
2022-09-15T15:37:49.195Z,18.15
2022-09-15T15:40:18.722Z,18.08
2022-09-15T15:42:57.716Z,18.02
2022-09-15T15:45:28.395Z,17.96
2022-09-15T15:47:55.142Z,17.92
2022-09-15T15:50:24.496Z,17.89
2022-09-15T15:52:52.246Z,17.87
2022-09-15T15:55:20.903Z,17.87
2022-09-15T15:57:49.507Z,17.81
2022-09-15T16:00:23.425Z,17.81
2022-09-15T16:02:50.915Z,17.79
2022-09-15T16:05:18.265Z,17.82
2022-09-15T16:07:46.781Z,17.82
2022-09-15T16:10:16.511Z,17.83
2022-09-15T16:12:43.245Z,17.76
2022-09-15T16:15:13.571Z,17.67
2022-09-15T16:17:45.932Z,17.56
2022-09-15T16:20:14.410Z,17.50
2022-09-15T16:23:21.584Z,17.42
2022-09-15T16:26:15.803Z,17.34
2022-09-15T16:28:52.764Z,17.27
2022-09-15T16:31:19.812Z,17.20
2022-09-15T16:33:48.022Z,17.20
2022-09-15T16:36:16.479Z,17.17
2022-09-15T16:38:44.199Z,17.16
2022-09-15T16:41:16.230Z,17.14
2022-09-15T16:43:43.149Z,17.22
2022-09-15T16:46:13.664Z,17.08
2022-09-15T16:48:42.089Z,17.05
2022-09-15T16:51:30.833Z,17.03
2022-09-15T16:53:59.681Z,16.99
2022-09-15T16:56:26.926Z,16.96
2022-09-15T16:58:58.933Z,16.92
2022-09-15T17:01:26.962Z,16.92
2022-09-15T17:03:53.990Z,16.88
2022-09-15T17:06:22.441Z,16.86
2022-09-15T17:08:49.294Z,16.81
2022-09-15T17:11:21.655Z,16.79
2022-09-15T17:13:51.359Z,16.75
2022-09-15T17:16:19.841Z,16.72
2022-09-15T17:18:46.815Z,16.68
2022-09-15T17:21:18.480Z,16.66
2022-09-15T17:23:48.469Z,16.60
2022-09-15T17:26:18.988Z,16.58
2022-09-15T17:28:46.962Z,16.54
2022-09-15T17:31:16.091Z,16.50
2022-09-15T17:33:43.377Z,16.44
2022-09-15T17:36:10.350Z,16.40
2022-09-15T17:38:37.356Z,16.37
2022-09-15T17:41:05.835Z,16.36
2022-09-15T17:43:32.688Z,16.31
2022-09-15T17:46:02.208Z,16.27
2022-09-15T17:48:29.342Z,16.21
2022-09-15T17:50:58.255Z,16.21
2022-09-15T17:53:25.735Z,16.16
2022-09-15T17:55:54.038Z,16.11
2022-09-15T17:58:23.262Z,16.10
2022-09-15T18:00:53.875Z,16.08
2022-09-15T18:03:23.897Z,16.04
2022-09-15T18:05:52.382Z,16.04
2022-09-15T18:08:19.039Z,15.99
2022-09-15T18:10:46.322Z,15.98
2022-09-15T18:13:14.935Z,15.97
2022-09-15T18:15:43.633Z,15.93
2022-09-15T18:18:14.811Z,15.90
2022-09-15T18:20:42.127Z,15.88
2022-09-15T18:23:17.546Z,15.86
2022-09-15T18:25:44.474Z,15.83
2022-09-15T18:28:11.229Z,15.81
2022-09-15T18:30:40.253Z,15.79
2022-09-15T18:33:13.230Z,15.76
2022-09-15T18:35:40.904Z,15.69
2022-09-15T18:38:08.589Z,15.67
2022-09-15T18:40:36.569Z,15.62
2022-09-15T18:43:04.606Z,15.62
2022-09-15T18:45:31.245Z,15.55
2022-09-15T18:47:57.943Z,15.52
2022-09-15T18:50:27.248Z,15.49
2022-09-15T18:52:53.886Z,15.45
2022-09-15T18:55:22.305Z,15.41
2022-09-15T18:57:49.432Z,15.44
2022-09-15T19:00:18.356Z,15.38
2022-09-15T19:02:45.872Z,15.34
2022-09-15T19:05:13.918Z,15.28
2022-09-15T19:07:42.218Z,15.23
2022-09-15T19:10:12.807Z,15.15
2022-09-15T19:12:44.165Z,15.15
2022-09-15T19:15:13.289Z,15.08
2022-09-15T19:17:41.032Z,15.03
2022-09-15T19:20:10.356Z,15.01
2022-09-15T19:22:37.751Z,14.96
2022-09-15T19:25:07.632Z,14.93
2022-09-15T19:27:34.613Z,14.91
2022-09-15T19:30:01.840Z,14.92
2022-09-15T19:32:28.572Z,14.91
2022-09-15T19:34:56.860Z,14.86
2022-09-15T19:37:27.905Z,14.78
2022-09-15T19:39:55.708Z,14.76
2022-09-15T19:42:23.864Z,14.66
2022-09-15T19:44:52.433Z,14.59
2022-09-15T19:47:19.247Z,14.44
2022-09-15T19:49:46.028Z,14.48
2022-09-15T19:52:12.983Z,14.45
2022-09-15T19:54:39.794Z,14.28
2022-09-15T19:57:06.653Z,14.19
2022-09-15T19:59:35.036Z,14.16
2022-09-15T20:02:03.058Z,14.11
2022-09-15T20:04:29.763Z,14.18
2022-09-15T20:06:56.465Z,14.10
2022-09-15T20:09:23.973Z,14.07
2022-09-15T20:11:50.887Z,14.04
2022-09-15T20:14:17.529Z,14.03
2022-09-15T20:16:45.558Z,14.01
2022-09-15T20:19:15.321Z,14.06
2022-09-15T20:21:50.802Z,14.04
2022-09-15T20:24:19.116Z,14.02
2022-09-15T20:26:45.954Z,13.93
2022-09-15T20:29:12.710Z,14.04
2022-09-15T20:31:40.171Z,14.01
2022-09-15T20:34:08.289Z,14.11
2022-09-15T20:36:36.969Z,14.06
2022-09-15T20:39:06.318Z,14.11
2022-09-15T20:41:34.530Z,14.06
2022-09-15T20:44:01.530Z,14.08
2022-09-15T20:46:28.219Z,14.07
2022-09-15T20:48:54.911Z,14.00
2022-09-15T20:51:24.424Z,14.03
2022-09-15T20:53:52.964Z,14.01
2022-09-15T20:56:21.499Z,13.98
2022-09-15T20:58:48.103Z,13.96
2022-09-15T21:01:16.353Z,13.91
2022-09-15T21:03:44.832Z,13.92
2022-09-15T21:06:13.730Z,13.89
2022-09-15T21:08:42.064Z,13.87
2022-09-15T21:11:10.218Z,13.71
2022-09-15T21:13:38.764Z,13.75
2022-09-15T21:16:07.828Z,13.75
2022-09-15T21:18:36.119Z,13.69
2022-09-15T21:21:04.985Z,13.62
2022-09-15T21:23:33.776Z,13.65
2022-09-15T21:26:03.783Z,13.70
2022-09-15T21:28:30.479Z,13.78
2022-09-15T21:31:01.238Z,13.82
2022-09-15T21:33:27.851Z,13.94
2022-09-15T21:36:02.055Z,14.01
2022-09-15T21:38:28.652Z,14.05
2022-09-15T21:40:55.411Z,14.01
2022-09-15T21:43:23.589Z,14.08
2022-09-15T21:45:54.829Z,14.08
2022-09-15T21:48:21.632Z,14.06
2022-09-15T21:50:49.782Z,14.01
2022-09-15T21:53:17.069Z,14.04
2022-09-15T21:55:43.742Z,14.03
2022-09-15T21:58:10.339Z,13.98
2022-09-15T22:00:38.600Z,13.95
2022-09-15T22:03:05.486Z,13.90
2022-09-15T22:05:32.071Z,13.69
2022-09-15T22:08:01.591Z,13.56
2022-09-15T22:10:31.357Z,13.55
2022-09-15T22:12:57.956Z,13.49
2022-09-15T22:15:24.675Z,13.51
2022-09-15T22:17:52.883Z,13.52
2022-09-15T22:20:19.543Z,13.46
2022-09-15T22:22:46.212Z,13.53
2022-09-15T22:25:12.957Z,13.53
2022-09-15T22:27:39.574Z,13.60
2022-09-15T22:30:07.825Z,13.52
2022-09-15T22:32:34.712Z,13.59
2022-09-15T22:35:02.700Z,13.63
2022-09-15T22:37:29.352Z,13.63
2022-09-15T22:39:59.621Z,13.74
2022-09-15T22:42:26.579Z,13.75
2022-09-15T22:44:53.195Z,13.80
2022-09-15T22:47:19.801Z,13.76
2022-09-15T22:49:46.366Z,13.81
2022-09-15T22:52:14.489Z,13.74
2022-09-15T22:54:40.996Z,13.80
2022-09-15T22:57:07.641Z,13.81
2022-09-15T22:59:34.242Z,13.78
2022-09-15T23:02:01.118Z,13.79
2022-09-15T23:04:28.124Z,13.70
2022-09-15T23:06:54.820Z,13.77
2022-09-15T23:09:22.815Z,13.77
2022-09-15T23:11:49.493Z,13.76
2022-09-15T23:14:17.033Z,13.67
2022-09-15T23:16:44.267Z,13.58
2022-09-15T23:19:12.181Z,13.52
2022-09-15T23:21:39.013Z,13.45
2022-09-15T23:24:06.124Z,13.41
2022-09-15T23:26:34.144Z,13.30
2022-09-15T23:29:00.674Z,13.14
2022-09-15T23:31:27.412Z,12.96
2022-09-15T23:33:53.961Z,13.00
2022-09-15T23:36:20.571Z,12.88
2022-09-15T23:38:48.326Z,12.88
2022-09-15T23:41:16.098Z,12.68
2022-09-15T23:43:44.501Z,12.59
2022-09-15T23:46:11.551Z,12.70
2022-09-15T23:48:38.226Z,12.51
2022-09-15T23:51:05.558Z,12.58
2022-09-15T23:53:32.187Z,12.56
2022-09-15T23:55:58.846Z,12.50
2022-09-15T23:58:25.594Z,12.62
